Time;durP1;ratioP1;P1;durP2;ratioP2;P2;SDS_P1;SDS_P2;PMS_P1;PMS_P2;Temp;Humidity;BMP_temperature;BMP_pressure;BME280_temperature;BME280_humidity;BME280_pressure;Samples;Min_cycle;Max_cycle;Signal;HPM_P1;HPM_P2
2024/01/04 00:02:10;;;;;;;0.10;0.10;;;;;;;9.35;100.00;97028.84;5137693;27;20290;-52
2024/01/04 00:04:57;;;;;;;0.10;0.10;;;;;;;9.39;100.00;97024.13;5136561;27;20667;-52
2024/01/04 00:07:44;;;;;;;0.00;0.00;;;;;;;9.28;100.00;97021.66;5136622;27;20296;-52
2024/01/04 00:10:31;;;;;;;0.00;0.00;;;;;;;9.35;100.00;97023.56;5138409;27;20240;-52
2024/01/04 00:13:19;;;;;;;0.00;0.00;;;;;;;9.40;100.00;97028.44;5148712;27;20190;-52
2024/01/04 00:16:10;;;;;;;0.00;0.00;;;;;;;9.37;100.00;97023.44;5147486;27;20289;-52
2024/01/04 00:18:57;;;;;;;0.10;0.10;;;;;;;9.35;100.00;97023.56;5157006;27;20184;-52
2024/01/04 00:21:44;;;;;;;0.00;0.00;;;;;;;9.34;100.00;97032.47;5145904;27;20205;-52
2024/01/04 00:24:31;;;;;;;0.00;0.00;;;;;;;9.38;100.00;97030.41;5143788;27;20197;-52
2024/01/04 00:27:18;;;;;;;0.00;0.00;;;;;;;9.36;100.00;97022.63;5156409;27;20655;-52
2024/01/04 00:30:08;;;;;;;0.10;0.10;;;;;;;9.37;100.00;97023.44;5153967;27;20210;-52
2024/01/04 00:32:55;;;;;;;0.00;0.00;;;;;;;9.23;100.00;97016.78;5155491;27;20192;-52
2024/01/04 00:35:42;;;;;;;0.00;0.00;;;;;;;9.16;100.00;97027.09;5149994;27;20335;-52
2024/01/04 00:38:29;;;;;;;0.10;0.10;;;;;;;9.22;100.00;97038.06;5135549;27;20684;-52
2024/01/04 00:41:17;;;;;;;0.00;0.00;;;;;;;9.14;100.00;97034.31;5135664;27;20311;-52
2024/01/04 00:44:04;;;;;;;0.00;0.00;;;;;;;9.15;100.00;97038.63;5134487;27;20197;-52
2024/01/04 00:46:52;;;;;;;0.10;0.10;;;;;;;9.12;100.00;97046.84;5150516;27;20197;-52
2024/01/04 00:49:39;;;;;;;0.00;0.00;;;;;;;9.08;100.00;97042.84;5156200;27;20193;-52
2024/01/04 00:52:26;;;;;;;0.00;0.00;;;;;;;9.08;100.00;97055.19;5156185;27;20319;-52
2024/01/04 00:55:13;;;;;;;0.00;0.00;;;;;;;8.93;100.00;97053.94;5148803;27;20239;-52
2024/01/04 00:58:02;;;;;;;0.00;0.00;;;;;;;8.85;100.00;97060.75;5149379;27;20201;-52
2024/01/04 01:00:49;;;;;;;0.00;0.00;;;;;;;8.84;100.00;97064.38;5133940;27;20209;-52
2024/01/04 01:03:37;;;;;;;0.00;0.00;;;;;;;8.79;100.00;97071.06;5134223;27;20236;-52
2024/01/04 01:06:24;;;;;;;0.10;0.10;;;;;;;8.75;100.00;97061.72;5145748;27;20185;-52
2024/01/04 01:09:11;;;;;;;0.00;0.00;;;;;;;8.65;100.00;97088.09;5154780;27;20269;-52
2024/01/04 01:11:58;;;;;;;0.00;0.00;;;;;;;8.51;100.00;97085.88;5155863;27;20239;-53
2024/01/04 01:14:45;;;;;;;0.03;0.03;;;;;;;8.52;100.00;97109.47;5154333;27;20197;-51
2024/01/04 01:17:32;;;;;;;0.00;0.00;;;;;;;8.40;100.00;97117.66;5134955;27;20644;-52
2024/01/04 01:20:21;;;;;;;0.00;0.00;;;;;;;8.41;100.00;97119.31;5133839;27;20259;-52
2024/01/04 01:23:08;;;;;;;0.00;0.00;;;;;;;8.33;100.00;97131.34;5134882;27;20200;-51
2024/01/04 01:25:55;;;;;;;0.00;0.00;;;;;;;8.32;100.00;97144.66;5141176;27;20200;-52
2024/01/04 01:28:42;;;;;;;0.00;0.00;;;;;;;8.33;100.00;97156.88;5154186;27;20223;-52
2024/01/04 01:31:29;;;;;;;0.03;0.03;;;;;;;8.24;100.00;97166.41;5154266;27;20283;-52
2024/01/04 01:34:16;;;;;;;0.00;0.00;;;;;;;8.30;100.00;97180.88;5155569;27;20246;-52
2024/01/04 01:37:04;;;;;;;0.00;0.00;;;;;;;8.23;100.00;97188.50;5139364;27;20279;-52
2024/01/04 01:39:51;;;;;;;0.00;0.00;;;;;;;8.30;100.00;97194.91;5134692;27;20192;-52
2024/01/04 01:42:38;;;;;;;0.00;0.00;;;;;;;8.24;100.00;97200.69;5134567;27;20553;-52
2024/01/04 01:45:25;;;;;;;0.00;0.00;;;;;;;8.28;100.00;97217.91;5134925;27;20189;-52
2024/01/04 01:48:14;;;;;;;0.00;0.00;;;;;;;8.26;100.00;97216.38;5155107;27;20216;-52
2024/01/04 01:51:01;;;;;;;0.00;0.00;;;;;;;8.13;100.00;97221.06;5155225;27;20723;-52
2024/01/04 01:53:49;;;;;;;0.00;0.00;;;;;;;8.03;100.00;97226.28;5154111;27;20749;-52
2024/01/04 01:56:36;;;;;;;0.00;0.00;;;;;;;8.14;100.00;97235.91;5142853;27;20213;-52
2024/01/04 01:59:24;;;;;;;0.00;0.00;;;;;;;8.18;100.00;97235.50;5132144;27;20315;-52
2024/01/04 02:02:14;;;;;;;0.00;0.00;;;;;;;8.12;100.00;97235.19;5133350;27;20189;-52
2024/01/04 02:05:02;;;;;;;0.00;0.00;;;;;;;8.11;100.00;97241.44;5134298;27;20189;-52
2024/01/04 02:07:49;;;;;;;0.00;0.00;;;;;;;8.04;100.00;97260.41;5134134;27;20192;-52
2024/01/04 02:10:37;;;;;;;0.00;0.00;;;;;;;8.03;100.00;97264.00;5134107;27;20188;-52
2024/01/04 02:13:23;;;;;;;0.00;0.00;;;;;;;8.07;100.00;97269.84;5133028;27;20279;-52
2024/01/04 02:16:11;;;;;;;0.00;0.00;;;;;;;7.99;100.00;97273.13;5141822;27;20204;-52
2024/01/04 02:18:57;;;;;;;0.00;0.00;;;;;;;8.03;100.00;97279.00;5153626;27;20215;-52
2024/01/04 02:21:44;;;;;;;0.00;0.00;;;;;;;7.94;100.00;97279.75;5153680;27;20196;-52
2024/01/04 02:24:33;;;;;;;0.00;0.00;;;;;;;7.97;100.00;97280.31;5153827;27;20189;-52
2024/01/04 02:27:19;;;;;;;0.00;0.00;;;;;;;7.86;100.00;97274.28;5137146;27;20255;-52
2024/01/04 02:30:07;;;;;;;0.00;0.00;;;;;;;7.87;100.00;97276.78;5132607;27;20205;-52
2024/01/04 02:32:54;;;;;;;0.00;0.00;;;;;;;7.78;100.00;97268.81;5132874;27;20609;-52
2024/01/04 02:35:41;;;;;;;0.00;0.00;;;;;;;7.79;100.00;97273.94;5136101;27;20196;-52
2024/01/04 02:38:28;;;;;;;0.00;0.00;;;;;;;7.82;100.00;97286.06;5153699;27;20789;-52
2024/01/04 02:41:17;;;;;;;0.10;0.10;;;;;;;7.86;100.00;97282.19;5154645;27;20196;-52
2024/01/04 02:44:03;;;;;;;0.00;0.00;;;;;;;7.86;100.00;97290.09;5153220;27;20192;-52
2024/01/04 02:46:50;;;;;;;0.07;0.07;;;;;;;7.88;100.00;97289.00;5141391;27;20193;-52
2024/01/04 02:49:38;;;;;;;0.00;0.00;;;;;;;7.90;100.00;97297.59;5134134;27;20189;-52
2024/01/04 02:52:25;;;;;;;0.00;0.00;;;;;;;7.87;100.00;97289.13;5154214;27;20220;-51
2024/01/04 02:55:12;;;;;;;0.00;0.00;;;;;;;7.87;100.00;97297.88;5153384;27;20189;-52
2024/01/04 02:58:00;;;;;;;0.00;0.00;;;;;;;7.88;100.00;97293.44;5133438;28;20292;-52
2024/01/04 03:00:46;;;;;;;0.00;0.00;;;;;;;7.86;100.00;97303.28;5143885;27;20201;-52
2024/01/04 03:03:33;;;;;;;0.00;0.00;;;;;;;7.78;100.00;97305.69;5154475;27;20184;-52
2024/01/04 03:06:23;;;;;;;0.10;0.10;;;;;;;7.87;100.00;97299.66;5145949;27;20189;-52
2024/01/04 03:09:10;;;;;;;0.00;0.00;;;;;;;7.80;100.00;97301.13;5133604;28;20197;-52
2024/01/04 03:11:57;;;;;;;0.00;0.00;;;;;;;7.83;100.00;97309.66;5133511;28;20714;-52
2024/01/04 03:14:45;;;;;;;0.00;0.00;;;;;;;7.79;100.00;97320.53;5132335;28;20320;-52
2024/01/04 03:17:32;;;;;;;0.00;0.00;;;;;;;7.84;100.00;97323.66;5151707;27;20216;-52
2024/01/04 03:20:19;;;;;;;0.00;0.00;;;;;;;7.82;100.00;97323.78;5153953;27;20220;-52
2024/01/04 03:23:06;;;;;;;0.00;0.00;;;;;;;7.88;100.00;97333.81;5155737;27;20372;-53
2024/01/04 03:25:52;;;;;;;0.00;0.00;;;;;;;7.92;100.00;97331.78;5154115;27;20197;-52
2024/01/04 03:28:39;;;;;;;0.00;0.00;;;;;;;7.95;100.00;97339.41;5136006;27;20234;-52
2024/01/04 03:31:28;;;;;;;0.00;0.00;;;;;;;7.94;100.00;97340.38;5137327;27;20221;-52
2024/01/04 03:34:14;;;;;;;0.00;0.00;;;;;;;7.94;100.00;97349.13;5137307;27;20234;-51
2024/01/04 03:37:01;;;;;;;0.00;0.00;;;;;;;7.93;100.00;97344.81;5150832;27;20208;-52
2024/01/04 03:39:49;;;;;;;0.10;0.10;;;;;;;7.97;100.00;97348.03;5157926;27;20196;-52
2024/01/04 03:42:36;;;;;;;0.10;0.10;;;;;;;7.97;100.00;97355.94;5157748;27;20317;-52
2024/01/04 03:45:23;;;;;;;0.00;0.00;;;;;;;7.94;100.00;97353.56;5156496;27;20222;-52
2024/01/04 03:48:11;;;;;;;0.10;0.10;;;;;;;7.96;100.00;97362.19;5136755;27;20193;-52
2024/01/04 03:50:58;;;;;;;0.00;0.00;;;;;;;7.97;100.00;97369.94;5136824;27;20231;-52
2024/01/04 03:53:45;;;;;;;0.00;0.00;;;;;;;7.93;100.00;97376.44;5136795;27;20208;-52
2024/01/04 03:56:32;;;;;;;0.00;0.00;;;;;;;7.88;100.00;97378.59;5145900;27;20200;-52
2024/01/04 03:59:19;;;;;;;0.00;0.00;;;;;;;7.94;100.00;97387.81;5156088;27;20193;-53
2024/01/04 04:02:06;;;;;;;0.03;0.03;;;;;;;7.99;100.00;97391.75;5157441;27;20197;-52
2024/01/04 04:04:56;;;;;;;0.07;0.07;;;;;;;7.90;100.00;97386.38;5157411;27;20269;-51
2024/01/04 04:07:42;;;;;;;0.00;0.00;;;;;;;7.93;100.00;97396.69;5138014;27;20664;-52
2024/01/04 04:10:29;;;;;;;0.00;0.00;;;;;;;7.90;100.00;97403.03;5135965;27;20253;-52
2024/01/04 04:13:17;;;;;;;0.10;0.10;;;;;;;7.91;100.00;97395.97;5154821;27;20200;-52
2024/01/04 04:16:04;;;;;;;0.00;0.00;;;;;;;7.90;100.00;97407.47;5151988;27;20286;-52
2024/01/04 04:18:51;;;;;;;0.00;0.00;;;;;;;7.99;100.00;97420.75;5135695;27;20217;-52
2024/01/04 04:21:39;;;;;;;0.00;0.00;;;;;;;8.01;100.00;97420.63;5136136;27;20228;-52
2024/01/04 04:24:25;;;;;;;0.00;0.00;;;;;;;7.93;100.00;97425.69;5143786;27;20193;-52
2024/01/04 04:27:13;;;;;;;0.00;0.00;;;;;;;7.91;100.00;97430.22;5148340;27;20311;-52
2024/01/04 04:30:00;;;;;;;0.00;0.00;;;;;;;8.00;100.00;97434.75;5134928;27;20263;-52
2024/01/04 04:32:47;;;;;;;0.00;0.00;;;;;;;7.97;100.00;97440.28;5135877;27;20194;-51
2024/01/04 04:35:35;;;;;;;0.00;0.00;;;;;;;7.99;100.00;97441.00;5135131;27;20193;-52
2024/01/04 04:38:38;;;;;;;0.00;0.00;;;;;;;8.06;100.00;97452.72;5135666;27;20217;-52
2024/01/04 04:41:26;;;;;;;0.00;0.00;;;;;;;8.08;100.00;97458.69;5134359;27;20291;-52
2024/01/04 04:44:12;;;;;;;0.00;0.00;;;;;;;8.04;100.00;97465.19;5134640;27;20198;-52
2024/01/04 04:46:59;;;;;;;0.00;0.00;;;;;;;8.09;100.00;97467.44;5135510;27;20235;-53
2024/01/04 04:49:47;;;;;;;0.00;0.00;;;;;;;8.07;100.00;97472.84;5135076;27;20672;-52
2024/01/04 04:52:34;;;;;;;0.00;0.00;;;;;;;8.08;100.00;97479.78;5135565;27;20189;-51
2024/01/04 04:55:22;;;;;;;0.00;0.00;;;;;;;8.10;100.00;97493.69;5135428;27;20366;-52
2024/01/04 04:58:09;;;;;;;0.00;0.00;;;;;;;8.09;100.00;97484.09;5134795;27;20214;-52
2024/01/04 05:00:56;;;;;;;0.00;0.00;;;;;;;8.07;100.00;97474.66;5135009;27;20197;-52
2024/01/04 05:03:43;;;;;;;0.00;0.00;;;;;;;7.98;100.00;97486.78;5135390;27;20201;-52
2024/01/04 05:06:33;;;;;;;0.00;0.00;;;;;;;7.94;100.00;97478.28;5135250;27;20206;-51
2024/01/04 05:09:21;;;;;;;0.00;0.00;;;;;;;7.84;100.00;97481.78;5155223;27;20193;-52
2024/01/04 05:12:09;;;;;;;0.00;0.00;;;;;;;7.90;100.00;97487.38;5155871;27;20192;-52
2024/01/04 05:14:55;;;;;;;0.00;0.00;;;;;;;7.85;100.00;97492.19;5154810;27;20246;-52
2024/01/04 05:17:42;;;;;;;0.00;0.00;;;;;;;7.90;100.00;97491.81;5137622;27;20679;-52
2024/01/04 05:20:29;;;;;;;0.00;0.00;;;;;;;7.98;100.00;97494.69;5145953;27;20224;-52
2024/01/04 05:23:17;;;;;;;0.00;0.00;;;;;;;7.99;100.00;97505.09;5154151;27;20197;-52
2024/01/04 05:26:04;;;;;;;0.10;0.10;;;;;;;8.02;100.00;97511.94;5152272;27;20259;-52
2024/01/04 05:28:52;;;;;;;0.00;0.00;;;;;;;8.00;100.00;97517.31;5135214;27;20320;-52
2024/01/04 05:31:39;;;;;;;0.00;0.00;;;;;;;7.90;100.00;97520.81;5146680;27;20321;-52
2024/01/04 05:34:29;;;;;;;0.00;0.00;;;;;;;7.82;100.00;97520.59;5135874;27;20208;-52
2024/01/04 05:37:16;;;;;;;0.00;0.00;;;;;;;7.84;100.00;97526.59;5136483;27;20197;-51
2024/01/04 05:40:04;;;;;;;0.10;0.10;;;;;;;7.86;100.00;97533.41;5143245;27;20188;-52
2024/01/04 05:42:52;;;;;;;0.10;0.10;;;;;;;7.85;100.00;97531.72;5154830;27;20200;-53
2024/01/04 05:45:40;;;;;;;0.00;0.00;;;;;;;7.87;100.00;97544.78;5133475;27;20197;-52
2024/01/04 05:48:27;;;;;;;0.00;0.00;;;;;;;7.87;100.00;97545.63;5135722;27;20193;-52
2024/01/04 05:51:14;;;;;;;0.00;0.00;;;;;;;7.91;100.00;97549.72;5134529;27;20190;-52
2024/01/04 05:54:02;;;;;;;0.00;0.00;;;;;;;7.94;100.00;97551.25;5135774;27;20197;-53
2024/01/04 05:56:49;;;;;;;0.00;0.00;;;;;;;7.93;100.00;97557.50;5144290;27;20211;-52
2024/01/04 05:59:36;;;;;;;0.00;0.00;;;;;;;7.94;100.00;97572.34;5141974;27;20319;-52
2024/01/04 06:02:26;;;;;;;0.07;0.07;;;;;;;7.98;100.00;97565.84;5135489;27;20235;-52
2024/01/04 06:05:13;;;;;;;0.00;0.00;;;;;;;8.00;100.00;97577.13;5138039;27;20202;-52
2024/01/04 06:08:00;;;;;;;0.10;0.10;;;;;;;8.06;100.00;97575.81;5153991;27;20197;-53
2024/01/04 06:10:46;;;;;;;0.00;0.00;;;;;;;7.98;100.00;97573.75;5153789;27;20196;-52
2024/01/04 06:13:33;;;;;;;0.00;0.00;;;;;;;7.95;100.00;97577.50;5152175;27;20199;-52
2024/01/04 06:16:20;;;;;;;0.00;0.00;;;;;;;7.87;100.00;97579.03;5147121;27;20197;-52
2024/01/04 06:19:09;;;;;;;0.10;0.10;;;;;;;7.74;100.00;97587.09;5136046;27;20306;-52
2024/01/04 06:21:55;;;;;;;0.00;0.00;;;;;;;7.84;100.00;97600.38;5134111;27;20240;-52
2024/01/04 06:24:42;;;;;;;0.00;0.00;;;;;;;7.84;100.00;97609.13;5135280;27;20197;-52
2024/01/04 06:27:29;;;;;;;0.00;0.00;;;;;;;7.90;100.00;97610.44;5138468;27;20200;-52
2024/01/04 06:30:16;;;;;;;0.00;0.00;;;;;;;7.83;100.00;97610.09;5134101;27;20201;-52
2024/01/04 06:33:03;;;;;;;0.00;0.00;;;;;;;7.88;100.00;97615.81;5133985;27;20327;-52
2024/01/04 06:35:51;;;;;;;0.00;0.00;;;;;;;7.92;100.00;97629.63;5137601;27;20196;-52
2024/01/04 06:38:41;;;;;;;0.03;0.03;;;;;;;7.92;100.00;97622.56;5154465;27;20227;-52
2024/01/04 06:41:29;;;;;;;0.00;0.00;;;;;;;7.94;100.00;97625.91;5153959;27;20204;-52
2024/01/04 06:44:16;;;;;;;0.00;0.00;;;;;;;7.96;100.00;97633.69;5151859;27;20196;-52
2024/01/04 06:47:04;;;;;;;0.00;0.00;;;;;;;7.95;100.00;97638.13;5143568;27;20286;-51
2024/01/04 06:49:51;;;;;;;0.00;0.00;;;;;;;7.86;100.00;97635.34;5135029;27;20251;-52
2024/01/04 06:52:47;;;;;;;0.00;0.00;;;;;;;7.81;100.00;97634.84;5134785;27;20259;-52
2024/01/04 06:55:34;;;;;;;0.00;0.00;;;;;;;7.84;100.00;97627.56;5140365;27;20205;-52
2024/01/04 06:58:22;;;;;;;0.00;0.00;;;;;;;7.85;100.00;97645.06;5138081;27;20221;-51
2024/01/04 07:01:09;;;;;;;0.10;0.10;;;;;;;7.85;100.00;97642.44;5155459;27;20199;-52
2024/01/04 07:03:55;;;;;;;0.10;0.10;;;;;;;7.81;100.00;97643.59;5158691;27;20280;-52
2024/01/04 07:06:46;;;;;;;0.00;0.00;;;;;;;7.80;100.00;97646.38;5148484;27;20212;-52
2024/01/04 07:09:36;;;;;;;0.00;0.00;;;;;;;7.80;100.00;97660.38;5139994;27;20205;-52
2024/01/04 07:12:24;;;;;;;0.00;0.00;;;;;;;7.75;100.00;97654.63;5137739;27;20284;-51
2024/01/04 07:15:11;;;;;;;0.00;0.00;;;;;;;7.76;100.00;97658.94;5138010;27;20197;-52
2024/01/04 07:17:58;;;;;;;0.00;0.00;;;;;;;7.77;100.00;97657.16;5155951;27;20200;-52
2024/01/04 07:20:45;;;;;;;0.00;0.00;;;;;;;7.79;100.00;97663.13;5150031;27;20217;-52
2024/01/04 07:23:32;;;;;;;0.07;0.07;;;;;;;7.72;100.00;97673.28;5138685;27;20202;-52
2024/01/04 07:26:20;;;;;;;0.00;0.00;;;;;;;7.79;100.00;97676.31;5142499;27;20189;-52
2024/01/04 07:29:07;;;;;;;0.00;0.00;;;;;;;7.78;100.00;97683.38;5157248;27;20653;-52
2024/01/04 07:31:55;;;;;;;0.00;0.00;;;;;;;7.80;100.00;97684.09;5141981;27;20314;-52
2024/01/04 07:34:41;;;;;;;0.00;0.00;;;;;;;7.71;100.00;97677.72;5137247;27;20224;-52
2024/01/04 07:37:33;;;;;;;0.00;0.00;;;;;;;7.77;100.00;97688.78;5142577;27;20243;-52
2024/01/04 07:40:20;;;;;;;0.00;0.00;;;;;;;7.80;100.00;97699.06;5137952;27;20213;-52
2024/01/04 07:43:08;;;;;;;0.00;0.00;;;;;;;7.80;100.00;97704.34;5137038;27;20193;-52
2024/01/04 07:45:55;;;;;;;0.00;0.00;;;;;;;7.80;100.00;97705.19;5138677;27;20189;-52
2024/01/04 07:48:42;;;;;;;0.00;0.00;;;;;;;7.81;100.00;97713.91;5140702;27;20211;-52
2024/01/04 07:51:29;;;;;;;0.10;0.10;;;;;;;7.83;100.00;97723.41;5139211;27;20186;-52
2024/01/04 07:54:16;;;;;;;0.00;0.00;;;;;;;7.85;100.00;97723.28;5137131;27;20247;-52
2024/01/04 07:57:03;;;;;;;0.00;0.00;;;;;;;7.86;100.00;97722.34;5143000;27;20318;-52
2024/01/04 07:59:51;;;;;;;0.00;0.00;;;;;;;7.96;100.00;97725.94;5135477;27;20239;-52
2024/01/04 08:02:39;;;;;;;0.10;0.10;;;;;;;7.87;100.00;97727.47;5137858;27;20198;-52
2024/01/04 08:05:26;;;;;;;0.10;0.10;;;;;;;7.85;100.00;97729.41;5136703;27;20198;-52
2024/01/04 08:08:14;;;;;;;0.10;0.10;;;;;;;7.98;100.00;97740.69;5137307;27;20189;-52
2024/01/04 08:11:01;;;;;;;0.00;0.00;;;;;;;7.81;100.00;97741.13;5137018;27;20332;-52
2024/01/04 08:13:47;;;;;;;0.10;0.10;;;;;;;7.88;100.00;97739.69;5135554;27;20667;-52
2024/01/04 08:16:36;;;;;;;0.00;0.00;;;;;;;7.97;100.00;97749.56;5141197;27;20212;-52
2024/01/04 08:19:22;;;;;;;0.10;0.10;;;;;;;8.01;100.00;97760.72;5156146;27;20221;-52
2024/01/04 08:22:09;;;;;;;0.00;0.00;;;;;;;7.99;100.00;97750.28;5155308;27;20200;-52
2024/01/04 08:24:56;;;;;;;0.10;0.10;;;;;;;7.97;100.00;97752.19;5156879;27;20201;-52
2024/01/04 08:27:43;;;;;;;0.00;0.00;;;;;;;7.95;100.00;97762.03;5151734;27;20212;-52
2024/01/04 08:30:30;;;;;;;0.00;0.00;;;;;;;7.91;100.00;97767.63;5156008;27;20197;-52
2024/01/04 08:33:18;;;;;;;0.00;0.00;;;;;;;7.93;100.00;97765.72;5146086;27;20190;-51
2024/01/04 08:36:06;;;;;;;0.00;0.00;;;;;;;7.93;100.00;97765.72;5137108;27;20235;-52
2024/01/04 08:38:54;;;;;;;0.00;0.00;;;;;;;7.99;100.00;97771.34;5135867;27;20201;-51
2024/01/04 08:41:41;;;;;;;0.00;0.00;;;;;;;7.91;100.00;97775.53;5137260;27;20259;-52
2024/01/04 08:44:29;;;;;;;0.00;0.00;;;;;;;7.83;100.00;97775.28;5135086;27;20189;-52
2024/01/04 08:47:16;;;;;;;0.10;0.10;;;;;;;7.83;100.00;97789.31;5139375;27;20196;-52
2024/01/04 08:50:05;;;;;;;0.00;0.00;;;;;;;7.83;100.00;97781.41;5134999;27;20249;-52
2024/01/04 08:52:52;;;;;;;0.00;0.00;;;;;;;7.88;100.00;97786.31;5138467;27;20189;-52
2024/01/04 08:55:38;;;;;;;0.10;0.10;;;;;;;7.91;100.00;97802.75;5138595;27;20223;-52
2024/01/04 08:58:25;;;;;;;0.07;0.07;;;;;;;7.90;100.00;97803.69;5142596;27;20191;-52
2024/01/04 09:01:12;;;;;;;0.00;0.00;;;;;;;7.94;100.00;97806.94;5135181;27;20217;-52
2024/01/04 09:04:02;;;;;;;0.00;0.00;;;;;;;7.81;100.00;97811.44;5138832;27;20197;-52
2024/01/04 09:06:51;;;;;;;0.00;0.00;;;;;;;7.95;100.00;97821.81;5138739;27;20708;-52
2024/01/04 09:09:40;;;;;;;0.00;0.00;;;;;;;7.88;100.00;97828.50;5135415;27;20663;-51
2024/01/04 09:12:28;;;;;;;0.00;0.00;;;;;;;7.79;100.00;97830.00;5135221;27;20233;-52
2024/01/04 09:15:14;;;;;;;0.00;0.00;;;;;;;7.85;100.00;97837.47;5134272;27;20189;-52
2024/01/04 09:18:02;;;;;;;0.00;0.00;;;;;;;7.84;100.00;97845.50;5151838;27;20204;-53
2024/01/04 09:20:48;;;;;;;0.00;0.00;;;;;;;7.78;100.00;97849.41;5151430;27;20233;-52
2024/01/04 09:23:37;;;;;;;0.10;0.10;;;;;;;7.87;100.00;97861.06;5140403;27;20284;-53
2024/01/04 09:26:24;;;;;;;0.00;0.00;;;;;;;7.81;100.00;97861.50;5133835;27;20205;-52
2024/01/04 09:29:13;;;;;;;0.00;0.00;;;;;;;7.92;100.00;97872.13;5153400;27;20384;-52
2024/01/04 09:32:02;;;;;;;0.00;0.00;;;;;;;8.00;100.00;97878.50;5152640;27;20197;-52
2024/01/04 09:34:50;;;;;;;0.00;0.00;;;;;;;7.89;100.00;97881.09;5154946;27;20193;-53
2024/01/04 09:37:38;;;;;;;0.00;0.00;;;;;;;7.91;100.00;97881.84;5153028;27;20227;-52
2024/01/04 09:40:27;;;;;;;0.00;0.00;;;;;;;7.98;100.00;97888.31;5153768;27;20326;-52
2024/01/04 09:43:16;;;;;;;0.00;0.00;;;;;;;8.05;100.00;97894.00;5154461;27;20200;-53
2024/01/04 09:46:03;;;;;;;0.10;0.10;;;;;;;7.99;100.00;97891.78;5154376;27;20193;-52
2024/01/04 09:48:56;;;;;;;0.00;0.00;;;;;;;8.10;100.00;97896.28;5133712;27;20197;-53
2024/01/04 09:51:43;;;;;;;0.00;0.00;;;;;;;7.95;100.00;97891.19;5133944;27;20198;-53
2024/01/04 09:54:32;;;;;;;0.00;0.00;;;;;;;8.05;100.00;97899.25;5144043;27;20205;-53
2024/01/04 09:57:23;;;;;;;0.00;0.00;;;;;;;8.05;100.00;97896.63;5153067;27;20192;-53
2024/01/04 10:00:11;;;;;;;0.00;0.00;;;;;;;8.07;100.00;97899.16;5138843;27;20254;-52
2024/01/04 10:03:02;;;;;;;0.00;0.00;;;;;;;8.12;100.00;97897.88;5153832;27;20200;-52
2024/01/04 10:05:49;;;;;;;0.00;0.00;;;;;;;8.23;100.00;97897.91;5137970;27;20239;-53
2024/01/04 10:08:42;;;;;;;0.10;0.10;;;;;;;8.33;100.00;97896.25;5146301;27;20294;-53
2024/01/04 10:11:38;;;;;;;0.00;0.00;;;;;;;8.41;100.00;97898.34;5145192;27;20555;-53
2024/01/04 10:14:26;;;;;;;0.00;0.00;;;;;;;8.47;100.00;97900.50;5152613;27;20191;-52
2024/01/04 10:17:13;;;;;;;0.00;0.00;;;;;;;8.47;100.00;97911.06;5145249;27;20197;-52
2024/01/04 10:20:03;;;;;;;0.00;0.00;;;;;;;8.47;100.00;97911.06;5148972;27;20245;-52
2024/01/04 10:22:51;;;;;;;0.00;0.00;;;;;;;8.38;100.00;97914.38;5133330;27;20197;-52
2024/01/04 10:25:38;;;;;;;0.00;0.00;;;;;;;8.43;100.00;97912.25;5133955;27;20185;-53
2024/01/04 10:28:25;;;;;;;0.00;0.00;;;;;;;8.43;100.00;97906.16;5145237;27;20197;-53
2024/01/04 10:31:14;;;;;;;0.00;0.00;;;;;;;8.45;100.00;97912.16;5134500;27;20576;-52
2024/01/04 10:34:01;;;;;;;0.00;0.00;;;;;;;8.46;100.00;97913.81;5136330;27;20188;-52
2024/01/04 10:36:48;;;;;;;0.00;0.00;;;;;;;8.37;100.00;97918.00;5149663;27;20302;-53
2024/01/04 10:39:34;;;;;;;0.00;0.00;;;;;;;8.42;100.00;97917.66;5135106;27;20201;-53
2024/01/04 10:42:21;;;;;;;0.00;0.00;;;;;;;8.49;100.00;97922.38;5146467;27;20193;-53
2024/01/04 10:45:10;;;;;;;0.03;0.03;;;;;;;8.54;100.00;97920.19;5136796;27;20188;-52
2024/01/04 10:47:59;;;;;;;0.00;0.00;;;;;;;8.62;100.00;97924.06;5143441;27;20267;-52
2024/01/04 10:50:46;;;;;;;0.00;0.00;;;;;;;8.57;100.00;97921.75;5148605;27;20197;-53
2024/01/04 10:53:36;;;;;;;0.00;0.00;;;;;;;8.58;100.00;97924.28;5153653;27;20204;-53
2024/01/04 10:56:24;;;;;;;0.00;0.00;;;;;;;8.55;100.00;97921.03;5150450;27;20779;-52
2024/01/04 10:59:12;;;;;;;0.00;0.00;;;;;;;8.60;100.00;97921.56;5132302;27;20205;-52
2024/01/04 11:02:00;;;;;;;0.00;0.00;;;;;;;8.63;100.00;97923.09;5145579;27;20282;-53
2024/01/04 11:04:48;;;;;;;0.00;0.00;;;;;;;8.68;100.00;97919.16;5151367;27;20204;-53
2024/01/04 11:07:38;;;;;;;0.00;0.00;;;;;;;8.77;100.00;97917.59;5140006;27;20197;-52
2024/01/04 11:10:25;;;;;;;0.00;0.00;;;;;;;8.76;100.00;97931.75;5148790;27;20192;-53
2024/01/04 11:13:12;;;;;;;0.00;0.00;;;;;;;8.77;100.00;97922.88;5149157;27;20269;-52
2024/01/04 11:16:06;;;;;;;0.00;0.00;;;;;;;8.75;100.00;97917.72;5133685;27;20189;-52
2024/01/04 11:19:14;;;;;;;0.00;0.00;;;;;;;8.91;100.00;97932.41;5134469;27;20189;-53
2024/01/04 11:22:16;;;;;;;0.00;0.00;;;;;;;8.90;100.00;97923.66;5148081;27;20220;-52
2024/01/04 11:25:13;;;;;;;0.03;0.03;;;;;;;8.81;100.00;97924.34;5140014;27;20196;-52
2024/01/04 11:28:04;;;;;;;0.00;0.00;;;;;;;8.85;100.00;97933.69;5134217;27;20197;-53
2024/01/04 11:30:52;;;;;;;0.00;0.00;;;;;;;9.10;100.00;97940.59;5133240;28;20227;-53
2024/01/04 11:33:40;;;;;;;0.00;0.00;;;;;;;9.06;100.00;97929.41;5133450;28;20189;-52
2024/01/04 11:36:28;;;;;;;0.00;0.00;;;;;;;9.87;100.00;97924.78;5132558;27;20190;-52
2024/01/04 11:39:26;;;;;;;0.00;0.00;;;;;;;10.88;100.00;97909.28;5153408;27;20303;-53
2024/01/04 11:42:16;;;;;;;0.10;0.10;;;;;;;13.41;100.00;97888.09;5153745;27;20219;-53
2024/01/04 11:45:05;;;;;;;0.10;0.10;;;;;;;14.16;100.00;97852.31;5154149;27;20295;-53
2024/01/04 11:47:52;;;;;;;0.00;0.00;;;;;;;12.98;100.00;97856.78;5145856;27;20201;-53
2024/01/04 11:50:47;;;;;;;0.07;0.07;;;;;;;11.66;100.00;97854.75;5137036;27;20320;-53
2024/01/04 11:53:37;;;;;;;0.00;0.00;;;;;;;11.51;100.00;97851.66;5136848;27;20328;-52
2024/01/04 11:56:26;;;;;;;0.00;0.00;;;;;;;13.48;100.00;97862.59;5136820;27;20281;-53
2024/01/04 11:59:15;;;;;;;0.10;0.10;;;;;;;14.23;100.00;97844.56;5135414;27;20196;-52
2024/01/04 12:02:02;;;;;;;0.00;0.00;;;;;;;13.72;100.00;97846.09;5136502;27;20217;-53
2024/01/04 12:04:49;;;;;;;0.00;0.00;;;;;;;14.85;100.00;97854.19;5133072;27;20201;-53
2024/01/04 12:07:37;;;;;;;0.00;0.00;;;;;;;14.64;100.00;97848.41;5144047;27;20673;-53
2024/01/04 12:10:24;;;;;;;0.00;0.00;;;;;;;12.79;100.00;97849.69;5155964;27;20201;-53
2024/01/04 12:13:12;;;;;;;0.10;0.10;;;;;;;11.77;100.00;97857.28;5156342;27;20204;-53
2024/01/04 12:15:59;;;;;;;0.00;0.00;;;;;;;11.04;100.00;97859.31;5156138;27;20208;-53
2024/01/04 12:18:46;;;;;;;0.10;0.10;;;;;;;11.18;100.00;97855.47;5136006;27;20228;-53
2024/01/04 12:21:33;;;;;;;0.00;0.00;;;;;;;11.05;100.00;97873.41;5134380;27;20217;-53
2024/01/04 12:24:20;;;;;;;0.00;0.00;;;;;;;10.19;100.00;97875.34;5134505;27;20323;-52
2024/01/04 12:27:07;;;;;;;0.00;0.00;;;;;;;9.79;100.00;97871.69;5138790;27;20670;-53
2024/01/04 12:29:55;;;;;;;0.10;0.10;;;;;;;9.55;100.00;97885.06;5155001;27;20205;-53
2024/01/04 12:32:41;;;;;;;0.00;0.00;;;;;;;9.60;100.00;97886.38;5154712;27;20205;-53
2024/01/04 12:35:29;;;;;;;0.00;0.00;;;;;;;9.57;100.00;97893.72;5155473;27;20219;-52
2024/01/04 12:38:24;;;;;;;0.00;0.00;;;;;;;9.96;100.00;97889.66;5141213;27;20208;-53
2024/01/04 12:41:11;;;;;;;0.10;0.10;;;;;;;10.44;100.00;97899.81;5133866;27;20251;-54
2024/01/04 12:43:58;;;;;;;0.00;0.00;;;;;;;10.19;100.00;97890.41;5133636;27;20201;-54
2024/01/04 12:46:46;;;;;;;0.00;0.00;;;;;;;10.50;100.00;97897.47;5135233;27;20262;-53
2024/01/04 12:49:35;;;;;;;0.00;0.00;;;;;;;10.95;100.00;97897.22;5154952;27;20189;-53
2024/01/04 12:52:22;;;;;;;0.10;0.10;;;;;;;12.18;100.00;97882.78;5154269;27;20234;-53
2024/01/04 12:55:09;;;;;;;0.00;0.00;;;;;;;11.50;100.00;97875.69;5154513;27;20249;-53
2024/01/04 12:57:58;;;;;;;0.03;0.03;;;;;;;10.57;100.00;97861.59;5146596;27;20679;-53
2024/01/04 13:00:45;;;;;;;0.00;0.00;;;;;;;10.31;100.00;97873.53;5134641;27;20726;-53
2024/01/04 13:03:33;;;;;;;0.10;0.10;;;;;;;10.29;100.00;97860.44;5133694;27;20190;-53
2024/01/04 13:06:20;;;;;;;0.00;0.00;;;;;;;10.06;100.00;97880.00;5134390;27;20428;-54
2024/01/04 13:09:07;;;;;;;0.10;0.10;;;;;;;10.13;100.00;97873.22;5142760;27;20200;-53